sensor_id;sensor_type;location;lat;lon;timestamp;pressure;altitude;pressure_sealevel;temperature;humidity
72548;BME280;60570;50.848;6.776;2023-10-13T00:00:07;100283.28;;;18.40;70.43
72548;BME280;60570;50.848;6.776;2023-10-13T00:01:25;100285.69;;;18.41;70.31
72548;BME280;60570;50.848;6.776;2023-10-13T00:02:27;100277.66;;;18.40;70.26
72548;BME280;60570;50.848;6.776;2023-10-13T00:03:27;100272.03;;;18.40;70.30
72548;BME280;60570;50.848;6.776;2023-10-13T00:04:31;100274.84;;;18.40;70.29
72548;BME280;60570;50.848;6.776;2023-10-13T00:05:35;100271.22;;;18.39;70.29
72548;BME280;60570;50.848;6.776;2023-10-13T00:06:38;100264.78;;;18.39;70.38
72548;BME280;60570;50.848;6.776;2023-10-13T00:07:38;100260.78;;;18.40;70.86
72548;BME280;60570;50.848;6.776;2023-10-13T00:08:40;100274.84;;;18.40;70.46
72548;BME280;60570;50.848;6.776;2023-10-13T00:09:40;100270.00;;;18.40;70.76
72548;BME280;60570;50.848;6.776;2023-10-13T00:10:42;100272.03;;;18.40;70.65
72548;BME280;60570;50.848;6.776;2023-10-13T00:11:43;100270.00;;;18.40;70.43
72548;BME280;60570;50.848;6.776;2023-10-13T00:12:46;100269.22;;;18.40;70.55
72548;BME280;60570;50.848;6.776;2023-10-13T00:13:49;100275.63;;;18.40;70.58
72548;BME280;60570;50.848;6.776;2023-10-13T00:14:50;100281.25;;;18.40;70.64
72548;BME280;60570;50.848;6.776;2023-10-13T00:15:53;100279.66;;;18.39;70.21
72548;BME280;60570;50.848;6.776;2023-10-13T00:16:57;100274.03;;;18.39;70.11
72548;BME280;60570;50.848;6.776;2023-10-13T00:18:05;100277.66;;;18.40;70.10
72548;BME280;60570;50.848;6.776;2023-10-13T00:19:12;100271.63;;;18.38;70.72
72548;BME280;60570;50.848;6.776;2023-10-13T00:20:13;100272.41;;;18.38;70.66
72548;BME280;60570;50.848;6.776;2023-10-13T00:21:34;100270.41;;;18.39;70.44
72548;BME280;60570;50.848;6.776;2023-10-13T00:22:36;100269.59;;;18.38;70.56
72548;BME280;60570;50.848;6.776;2023-10-13T00:23:40;100260.38;;;18.38;70.44
72548;BME280;60570;50.848;6.776;2023-10-13T00:24:49;100262.34;;;18.37;70.38
72548;BME280;60570;50.848;6.776;2023-10-13T00:25:51;100263.97;;;18.38;70.67
72548;BME280;60570;50.848;6.776;2023-10-13T00:26:59;100263.19;;;18.38;70.76
72548;BME280;60570;50.848;6.776;2023-10-13T00:28:03;100264.78;;;18.39;70.47
72548;BME280;60570;50.848;6.776;2023-10-13T00:29:08;100259.56;;;18.37;70.48
72548;BME280;60570;50.848;6.776;2023-10-13T00:30:09;100265.19;;;18.37;70.21
72548;BME280;60570;50.848;6.776;2023-10-13T00:31:17;100256.75;;;18.37;70.45
72548;BME280;60570;50.848;6.776;2023-10-13T00:32:22;100255.53;;;18.38;70.42
72548;BME280;60570;50.848;6.776;2023-10-13T00:33:27;100251.94;;;18.38;70.30
72548;BME280;60570;50.848;6.776;2023-10-13T00:34:32;100248.28;;;18.37;70.38
72548;BME280;60570;50.848;6.776;2023-10-13T00:35:33;100248.28;;;18.37;70.45
72548;BME280;60570;50.848;6.776;2023-10-13T00:36:37;100249.91;;;18.38;70.36
72548;BME280;60570;50.848;6.776;2023-10-13T00:37:47;100249.91;;;18.38;70.47
72548;BME280;60570;50.848;6.776;2023-10-13T00:38:48;100246.66;;;18.36;70.33
72548;BME280;60570;50.848;6.776;2023-10-13T00:39:52;100251.13;;;18.37;70.50
72548;BME280;60570;50.848;6.776;2023-10-13T00:40:56;100249.13;;;18.38;70.55
72548;BME280;60570;50.848;6.776;2023-10-13T00:42:04;100247.88;;;18.35;70.59
72548;BME280;60570;50.848;6.776;2023-10-13T00:43:09;100245.06;;;18.35;70.50
72548;BME280;60570;50.848;6.776;2023-10-13T00:44:29;100238.22;;;18.36;70.87
72548;BME280;60570;50.848;6.776;2023-10-13T00:45:38;100229.78;;;18.36;70.63
72548;BME280;60570;50.848;6.776;2023-10-13T00:46:41;100230.59;;;18.37;70.50
72548;BME280;60570;50.848;6.776;2023-10-13T00:47:44;100231.41;;;18.37;70.17
72548;BME280;60570;50.848;6.776;2023-10-13T00:48:49;100239.03;;;18.37;70.21
72548;BME280;60570;50.848;6.776;2023-10-13T00:49:53;100235.41;;;18.36;70.43
72548;BME280;60570;50.848;6.776;2023-10-13T00:50:53;100245.06;;;18.35;70.75
72548;BME280;60570;50.848;6.776;2023-10-13T00:51:56;100235.41;;;18.36;70.22
72548;BME280;60570;50.848;6.776;2023-10-13T00:52:58;100232.59;;;18.36;70.12
72548;BME280;60570;50.848;6.776;2023-10-13T00:54:04;100231.00;;;18.35;70.67
72548;BME280;60570;50.848;6.776;2023-10-13T00:55:08;100233.81;;;18.35;70.33
72548;BME280;60570;50.848;6.776;2023-10-13T00:56:10;100230.19;;;18.35;70.58
72548;BME280;60570;50.848;6.776;2023-10-13T00:57:19;100226.97;;;18.33;70.56
72548;BME280;60570;50.848;6.776;2023-10-13T00:58:27;100226.56;;;18.34;70.62
72548;BME280;60570;50.848;6.776;2023-10-13T00:59:29;100227.38;;;18.35;70.28
72548;BME280;60570;50.848;6.776;2023-10-13T01:00:33;100226.19;;;18.36;70.43
72548;BME280;60570;50.848;6.776;2023-10-13T01:01:46;100220.16;;;18.34;70.57
72548;BME280;60570;50.848;6.776;2023-10-13T01:02:53;100223.75;;;18.34;70.40
72548;BME280;60570;50.848;6.776;2023-10-13T01:04:06;100223.75;;;18.34;70.40
72548;BME280;60570;50.848;6.776;2023-10-13T01:05:08;100217.75;;;18.36;70.26
72548;BME280;60570;50.848;6.776;2023-10-13T01:06:10;100215.31;;;18.34;70.52
72548;BME280;60570;50.848;6.776;2023-10-13T01:07:12;100220.94;;;18.34;70.64
72548;BME280;60570;50.848;6.776;2023-10-13T01:08:16;100212.50;;;18.34;70.56
72548;BME280;60570;50.848;6.776;2023-10-13T01:09:16;100216.53;;;18.33;70.41
72548;BME280;60570;50.848;6.776;2023-10-13T01:10:17;100212.50;;;18.34;70.35
72548;BME280;60570;50.848;6.776;2023-10-13T01:11:19;100208.91;;;18.34;70.78
72548;BME280;60570;50.848;6.776;2023-10-13T01:12:23;100196.44;;;18.31;70.60
72548;BME280;60570;50.848;6.776;2023-10-13T01:13:24;100205.69;;;18.32;70.82
72548;BME280;60570;50.848;6.776;2023-10-13T01:14:26;100209.28;;;18.32;70.52
72548;BME280;60570;50.848;6.776;2023-10-13T01:15:29;100198.84;;;18.33;70.53
72548;BME280;60570;50.848;6.776;2023-10-13T01:16:30;100207.28;;;18.33;70.31
72548;BME280;60570;50.848;6.776;2023-10-13T01:17:30;100199.66;;;18.33;70.60
72548;BME280;60570;50.848;6.776;2023-10-13T01:18:32;100203.66;;;18.32;70.98
72548;BME280;60570;50.848;6.776;2023-10-13T01:19:39;100196.03;;;18.33;70.75
72548;BME280;60570;50.848;6.776;2023-10-13T01:20:43;100195.22;;;18.32;70.94
72548;BME280;60570;50.848;6.776;2023-10-13T01:21:46;100193.22;;;18.33;70.89
72548;BME280;60570;50.848;6.776;2023-10-13T01:22:48;100202.47;;;18.33;70.65
72548;BME280;60570;50.848;6.776;2023-10-13T01:23:57;100187.59;;;18.33;70.57
72548;BME280;60570;50.848;6.776;2023-10-13T01:24:57;100186.00;;;18.32;70.49
72548;BME280;60570;50.848;6.776;2023-10-13T01:26:06;100188.00;;;18.31;70.64
72548;BME280;60570;50.848;6.776;2023-10-13T01:27:07;100186.78;;;18.32;70.39
72548;BME280;60570;50.848;6.776;2023-10-13T01:28:17;100186.78;;;18.32;70.72
72548;BME280;60570;50.848;6.776;2023-10-13T01:29:17;100183.97;;;18.32;71.03
72548;BME280;60570;50.848;6.776;2023-10-13T01:30:19;100183.59;;;18.30;70.82
72548;BME280;60570;50.848;6.776;2023-10-13T01:31:23;100180.78;;;18.30;70.44
72548;BME280;60570;50.848;6.776;2023-10-13T01:32:29;100176.75;;;18.31;70.60
72548;BME280;60570;50.848;6.776;2023-10-13T01:33:29;100177.56;;;18.32;70.62
72548;BME280;60570;50.848;6.776;2023-10-13T01:34:32;100177.56;;;18.32;70.58
72548;BME280;60570;50.848;6.776;2023-10-13T01:35:33;100167.09;;;18.32;70.89
72548;BME280;60570;50.848;6.776;2023-10-13T01:36:36;100171.94;;;18.32;70.62
72548;BME280;60570;50.848;6.776;2023-10-13T01:37:40;100171.13;;;18.31;70.95
72548;BME280;60570;50.848;6.776;2023-10-13T01:38:41;100170.31;;;18.31;70.66
72548;BME280;60570;50.848;6.776;2023-10-13T01:39:44;100169.13;;;18.32;70.62
72548;BME280;60570;50.848;6.776;2023-10-13T01:40:47;100169.91;;;18.32;71.08
72548;BME280;60570;50.848;6.776;2023-10-13T01:41:51;100186.00;;;18.32;71.09
72548;BME280;60570;50.848;6.776;2023-10-13T01:42:55;100174.34;;;18.30;70.92
72548;BME280;60570;50.848;6.776;2023-10-13T01:43:56;100175.94;;;18.31;70.74
72548;BME280;60570;50.848;6.776;2023-10-13T01:44:57;100165.91;;;18.30;70.49
72548;BME280;60570;50.848;6.776;2023-10-13T01:46:05;100165.91;;;18.30;70.85
72548;BME280;60570;50.848;6.776;2023-10-13T01:47:07;100166.72;;;18.30;70.85
72548;BME280;60570;50.848;6.776;2023-10-13T01:48:08;100161.47;;;18.29;70.82
72548;BME280;60570;50.848;6.776;2023-10-13T01:49:08;100161.47;;;18.29;70.99
72548;BME280;60570;50.848;6.776;2023-10-13T01:50:09;100162.28;;;18.29;70.42
72548;BME280;60570;50.848;6.776;2023-10-13T01:51:21;100160.28;;;18.30;70.75
72548;BME280;60570;50.848;6.776;2023-10-13T01:52:27;100161.88;;;18.31;70.75
72548;BME280;60570;50.848;6.776;2023-10-13T01:53:29;100161.88;;;18.31;70.59
72548;BME280;60570;50.848;6.776;2023-10-13T01:54:31;100161.09;;;18.30;70.49
72548;BME280;60570;50.848;6.776;2023-10-13T01:55:34;100163.09;;;18.30;70.77
72548;BME280;60570;50.848;6.776;2023-10-13T01:56:43;100154.25;;;18.28;71.21
72548;BME280;60570;50.848;6.776;2023-10-13T01:57:44;100162.69;;;18.28;70.82
72548;BME280;60570;50.848;6.776;2023-10-13T01:58:47;100152.59;;;18.27;71.00
72548;BME280;60570;50.848;6.776;2023-10-13T01:59:48;100155.41;;;18.27;71.09
72548;BME280;60570;50.848;6.776;2023-10-13T02:00:49;100153.81;;;18.26;70.84
72548;BME280;60570;50.848;6.776;2023-10-13T02:01:50;100150.22;;;18.29;70.40
72548;BME280;60570;50.848;6.776;2023-10-13T02:02:52;100157.88;;;18.28;70.79
72548;BME280;60570;50.848;6.776;2023-10-13T02:03:53;100152.25;;;18.28;70.56
72548;BME280;60570;50.848;6.776;2023-10-13T02:05:03;100155.06;;;18.28;70.70
72548;BME280;60570;50.848;6.776;2023-10-13T02:06:04;100142.19;;;18.27;71.04
72548;BME280;60570;50.848;6.776;2023-10-13T02:07:04;100147.41;;;18.29;70.85
72548;BME280;60570;50.848;6.776;2023-10-13T02:08:09;100146.63;;;18.28;70.70
72548;BME280;60570;50.848;6.776;2023-10-13T02:09:11;100146.63;;;18.28;70.68
72548;BME280;60570;50.848;6.776;2023-10-13T02:10:13;100144.97;;;18.27;70.82
72548;BME280;60570;50.848;6.776;2023-10-13T02:11:16;100146.19;;;18.26;71.12
72548;BME280;60570;50.848;6.776;2023-10-13T02:12:19;100144.97;;;18.27;70.93
72548;BME280;60570;50.848;6.776;2023-10-13T02:13:25;100146.19;;;18.26;70.93
72548;BME280;60570;50.848;6.776;2023-10-13T02:14:26;100134.13;;;18.26;71.18
72548;BME280;60570;50.848;6.776;2023-10-13T02:15:27;100142.56;;;18.26;71.02
72548;BME280;60570;50.848;6.776;2023-10-13T02:16:34;100145.38;;;18.26;70.80
72548;BME280;60570;50.848;6.776;2023-10-13T02:17:36;100129.34;;;18.26;71.07
72548;BME280;60570;50.848;6.776;2023-10-13T02:18:41;100138.94;;;18.25;70.73
72548;BME280;60570;50.848;6.776;2023-10-13T02:19:43;100132.50;;;18.25;70.81
72548;BME280;60570;50.848;6.776;2023-10-13T02:20:44;100129.69;;;18.25;71.03
72548;BME280;60570;50.848;6.776;2023-10-13T02:21:46;100130.09;;;18.23;71.38
72548;BME280;60570;50.848;6.776;2023-10-13T02:22:59;100131.72;;;18.24;70.76
72548;BME280;60570;50.848;6.776;2023-10-13T02:24:00;100129.69;;;18.25;70.81
72548;BME280;60570;50.848;6.776;2023-10-13T02:25:00;100124.91;;;18.25;70.47
72548;BME280;60570;50.848;6.776;2023-10-13T02:26:02;100120.06;;;18.26;71.04
72548;BME280;60570;50.848;6.776;2023-10-13T02:27:12;100120.91;;;18.26;70.64
72548;BME280;60570;50.848;6.776;2023-10-13T02:28:14;100126.53;;;18.26;70.67
72548;BME280;60570;50.848;6.776;2023-10-13T02:29:14;100119.28;;;18.25;70.73
72548;BME280;60570;50.848;6.776;2023-10-13T02:30:18;100122.91;;;18.26;71.04
72548;BME280;60570;50.848;6.776;2023-10-13T02:31:26;100122.06;;;18.25;70.73
72548;BME280;60570;50.848;6.776;2023-10-13T02:32:27;100122.91;;;18.26;70.83
72548;BME280;60570;50.848;6.776;2023-10-13T02:33:30;100115.28;;;18.26;70.63
72548;BME280;60570;50.848;6.776;2023-10-13T02:34:32;100116.44;;;18.25;70.88
72548;BME280;60570;50.848;6.776;2023-10-13T02:35:34;100108.41;;;18.24;70.73
72548;BME280;60570;50.848;6.776;2023-10-13T02:36:36;100110.41;;;18.23;71.05
72548;BME280;60570;50.848;6.776;2023-10-13T02:37:36;100108.00;;;18.25;71.06
72548;BME280;60570;50.848;6.776;2023-10-13T02:38:38;100100.81;;;18.24;71.04
72548;BME280;60570;50.848;6.776;2023-10-13T02:39:45;100108.00;;;18.25;70.84
72548;BME280;60570;50.848;6.776;2023-10-13T02:40:46;100100.41;;;18.26;70.80
72548;BME280;60570;50.848;6.776;2023-10-13T02:41:46;100110.84;;;18.25;70.70
72548;BME280;60570;50.848;6.776;2023-10-13T02:42:50;100104.38;;;18.25;71.28
72548;BME280;60570;50.848;6.776;2023-10-13T02:43:51;100105.22;;;18.25;70.99
72548;BME280;60570;50.848;6.776;2023-10-13T02:44:51;100103.22;;;18.26;71.07
72548;BME280;60570;50.848;6.776;2023-10-13T02:45:56;100101.59;;;18.25;71.04
72548;BME280;60570;50.848;6.776;2023-10-13T02:46:59;100098.00;;;18.24;71.34
72548;BME280;60570;50.848;6.776;2023-10-13T02:48:00;100092.72;;;18.23;71.13
72548;BME280;60570;50.848;6.776;2023-10-13T02:49:17;100087.91;;;18.23;71.54
72548;BME280;60570;50.848;6.776;2023-10-13T02:50:19;100091.53;;;18.24;70.83
72548;BME280;60570;50.848;6.776;2023-10-13T02:51:24;100085.94;;;18.24;70.82
72548;BME280;60570;50.848;6.776;2023-10-13T02:52:31;100085.50;;;18.22;71.56
72548;BME280;60570;50.848;6.776;2023-10-13T02:53:38;100082.69;;;18.22;71.09
72548;BME280;60570;50.848;6.776;2023-10-13T02:54:38;100088.31;;;18.22;71.00
72548;BME280;60570;50.848;6.776;2023-10-13T02:55:49;100076.69;;;18.23;71.34
72548;BME280;60570;50.848;6.776;2023-10-13T02:56:50;100083.50;;;18.22;71.17
72548;BME280;60570;50.848;6.776;2023-10-13T02:57:58;100077.47;;;18.20;71.30
72548;BME280;60570;50.848;6.776;2023-10-13T02:58:58;100081.88;;;18.21;71.19
72548;BME280;60570;50.848;6.776;2023-10-13T03:00:05;100072.28;;;18.22;71.36
72548;BME280;60570;50.848;6.776;2023-10-13T03:01:13;100069.03;;;18.20;71.50
72548;BME280;60570;50.848;6.776;2023-10-13T03:02:19;100073.03;;;18.19;71.82
72548;BME280;60570;50.848;6.776;2023-10-13T03:03:25;100067.81;;;18.18;71.72
72548;BME280;60570;50.848;6.776;2023-10-13T03:04:30;100072.63;;;18.17;71.67
72548;BME280;60570;50.848;6.776;2023-10-13T03:05:33;100071.44;;;18.18;71.37
72548;BME280;60570;50.848;6.776;2023-10-13T03:06:35;100070.22;;;18.19;71.65
72548;BME280;60570;50.848;6.776;2023-10-13T03:07:40;100073.03;;;18.19;71.50
72548;BME280;60570;50.848;6.776;2023-10-13T03:08:43;100059.41;;;18.21;71.26
72548;BME280;60570;50.848;6.776;2023-10-13T03:09:43;100057.81;;;18.20;71.34
72548;BME280;60570;50.848;6.776;2023-10-13T03:10:50;100052.97;;;18.21;71.67
72548;BME280;60570;50.848;6.776;2023-10-13T03:11:54;100051.38;;;18.20;71.70
72548;BME280;60570;50.848;6.776;2023-10-13T03:12:55;100055.00;;;18.20;71.27
72548;BME280;60570;50.848;6.776;2023-10-13T03:13:57;100052.97;;;18.21;71.33
72548;BME280;60570;50.848;6.776;2023-10-13T03:14:58;100051.78;;;18.22;71.19
72548;BME280;60570;50.848;6.776;2023-10-13T03:16:13;100050.16;;;18.21;71.38
72548;BME280;60570;50.848;6.776;2023-10-13T03:17:16;100049.38;;;18.20;71.53
72548;BME280;60570;50.848;6.776;2023-10-13T03:18:19;100047.34;;;18.21;71.49
72548;BME280;60570;50.848;6.776;2023-10-13T03:19:20;100042.94;;;18.20;71.57
72548;BME280;60570;50.848;6.776;2023-10-13T03:20:21;100044.53;;;18.21;72.03
72548;BME280;60570;50.848;6.776;2023-10-13T03:21:31;100040.13;;;18.20;72.04
72548;BME280;60570;50.848;6.776;2023-10-13T03:22:32;100032.50;;;18.20;71.85
72548;BME280;60570;50.848;6.776;2023-10-13T03:23:33;100034.91;;;18.18;71.59
72548;BME280;60570;50.848;6.776;2023-10-13T03:24:46;100032.88;;;18.19;71.61
72548;BME280;60570;50.848;6.776;2023-10-13T03:25:46;100029.28;;;18.18;71.99
72548;BME280;60570;50.848;6.776;2023-10-13T03:26:50;100024.84;;;18.21;71.31
72548;BME280;60570;50.848;6.776;2023-10-13T03:27:52;100028.88;;;18.20;71.55
72548;BME280;60570;50.848;6.776;2023-10-13T03:29:03;100019.63;;;18.19;71.98
72548;BME280;60570;50.848;6.776;2023-10-13T03:30:07;100022.84;;;18.18;71.67
72548;BME280;60570;50.848;6.776;2023-10-13T03:31:14;100031.28;;;18.18;71.68
72548;BME280;60570;50.848;6.776;2023-10-13T03:32:18;100033.69;;;18.19;71.54
72548;BME280;60570;50.848;6.776;2023-10-13T03:33:20;100017.22;;;18.18;71.86
72548;BME280;60570;50.848;6.776;2023-10-13T03:34:25;100016.00;;;18.19;71.28
72548;BME280;60570;50.848;6.776;2023-10-13T03:35:29;100017.63;;;18.20;71.47
72548;BME280;60570;50.848;6.776;2023-10-13T03:36:38;100012.00;;;18.20;71.90
72548;BME280;60570;50.848;6.776;2023-10-13T03:37:57;100010.00;;;18.20;71.27
72548;BME280;60570;50.848;6.776;2023-10-13T03:38:58;100000.75;;;18.20;71.28
72548;BME280;60570;50.848;6.776;2023-10-13T03:39:59;99999.94;;;18.19;71.59
72548;BME280;60570;50.848;6.776;2023-10-13T03:41:00;99999.13;;;18.19;71.65
72548;BME280;60570;50.848;6.776;2023-10-13T03:42:07;99994.31;;;18.19;71.81
72548;BME280;60570;50.848;6.776;2023-10-13T03:43:11;99996.31;;;18.19;71.71
72548;BME280;60570;50.848;6.776;2023-10-13T03:44:13;99993.91;;;18.17;72.06
72548;BME280;60570;50.848;6.776;2023-10-13T03:45:21;99994.72;;;18.18;71.78
72548;BME280;60570;50.848;6.776;2023-10-13T03:46:21;99992.72;;;18.18;71.46
72548;BME280;60570;50.848;6.776;2023-10-13T03:47:23;99995.53;;;18.18;71.76
72548;BME280;60570;50.848;6.776;2023-10-13T03:48:26;99994.72;;;18.18;71.69
72548;BME280;60570;50.848;6.776;2023-10-13T03:49:31;99984.28;;;18.18;71.34
72548;BME280;60570;50.848;6.776;2023-10-13T03:50:37;99990.69;;;18.19;71.17
72548;BME280;60570;50.848;6.776;2023-10-13T03:51:46;99983.06;;;18.19;71.46
72548;BME280;60570;50.848;6.776;2023-10-13T03:52:48;99981.06;;;18.20;71.48
72548;BME280;60570;50.848;6.776;2023-10-13T03:53:49;99981.88;;;18.20;71.47
72548;BME280;60570;50.848;6.776;2023-10-13T03:54:53;99979.44;;;18.19;71.27
72548;BME280;60570;50.848;6.776;2023-10-13T03:55:54;99981.06;;;18.20;71.49
72548;BME280;60570;50.848;6.776;2023-10-13T03:57:08;99989.09;;;18.21;71.55
72548;BME280;60570;50.848;6.776;2023-10-13T03:58:11;99987.88;;;18.19;71.77
72548;BME280;60570;50.848;6.776;2023-10-13T03:59:14;99979.44;;;18.19;72.13
72548;BME280;60570;50.848;6.776;2023-10-13T04:00:20;99977.44;;;18.19;71.37
72548;BME280;60570;50.848;6.776;2023-10-13T04:01:26;99978.25;;;18.20;71.60
72548;BME280;60570;50.848;6.776;2023-10-13T04:02:33;99971.41;;;18.17;72.01
72548;BME280;60570;50.848;6.776;2023-10-13T04:03:36;99970.59;;;18.17;72.11
72548;BME280;60570;50.848;6.776;2023-10-13T04:04:56;99975.84;;;18.18;71.88
72548;BME280;60570;50.848;6.776;2023-10-13T04:06:07;99975.84;;;18.18;71.62
72548;BME280;60570;50.848;6.776;2023-10-13T04:07:08;99973.03;;;18.18;72.01
72548;BME280;60570;50.848;6.776;2023-10-13T04:08:29;99972.63;;;18.20;71.57
72548;BME280;60570;50.848;6.776;2023-10-13T04:09:49;99976.25;;;18.20;71.55
72548;BME280;60570;50.848;6.776;2023-10-13T04:11:19;99975.44;;;18.20;72.02
72548;BME280;60570;50.848;6.776;2023-10-13T04:12:38;99981.88;;;18.20;71.63
72548;BME280;60570;50.848;6.776;2023-10-13T04:13:57;99975.84;;;18.18;71.63
72548;BME280;60570;50.848;6.776;2023-10-13T04:15:17;99977.84;;;18.18;72.12
72548;BME280;60570;50.848;6.776;2023-10-13T04:16:27;99972.22;;;18.18;71.92
72548;BME280;60570;50.848;6.776;2023-10-13T04:17:38;99974.22;;;18.17;71.65
72548;BME280;60570;50.848;6.776;2023-10-13T04:18:44;99979.84;;;18.17;71.85
72548;BME280;60570;50.848;6.776;2023-10-13T04:20:08;99978.66;;;18.18;71.99
72548;BME280;60570;50.848;6.776;2023-10-13T04:21:24;99977.84;;;18.18;71.80
72548;BME280;60570;50.848;6.776;2023-10-13T04:22:40;99959.75;;;18.19;72.05
72548;BME280;60570;50.848;6.776;2023-10-13T04:23:56;99961.78;;;18.18;72.01
72548;BME280;60570;50.848;6.776;2023-10-13T04:25:09;99958.97;;;18.18;71.61
72548;BME280;60570;50.848;6.776;2023-10-13T04:26:26;99962.97;;;18.17;71.82
72548;BME280;60570;50.848;6.776;2023-10-13T04:27:37;99958.97;;;18.18;71.66
72548;BME280;60570;50.848;6.776;2023-10-13T04:28:44;99955.75;;;18.20;72.04
72548;BME280;60570;50.848;6.776;2023-10-13T04:29:51;99959.75;;;18.19;71.85
72548;BME280;60570;50.848;6.776;2023-10-13T04:31:02;99955.75;;;18.20;71.96
72548;BME280;60570;50.848;6.776;2023-10-13T04:32:13;99956.94;;;18.19;72.07
72548;BME280;60570;50.848;6.776;2023-10-13T04:33:15;99958.97;;;18.18;71.80
72548;BME280;60570;50.848;6.776;2023-10-13T04:34:35;99953.34;;;18.18;72.10
72548;BME280;60570;50.848;6.776;2023-10-13T04:35:39;99948.09;;;18.17;71.72
72548;BME280;60570;50.848;6.776;2023-10-13T04:36:48;99951.31;;;18.19;71.78
72548;BME280;60570;50.848;6.776;2023-10-13T04:37:55;99942.09;;;18.18;71.99
72548;BME280;60570;50.848;6.776;2023-10-13T04:39:01;99946.50;;;18.19;71.56
72548;BME280;60570;50.848;6.776;2023-10-13T04:40:09;99940.88;;;18.19;71.75
72548;BME280;60570;50.848;6.776;2023-10-13T04:41:10;99941.28;;;18.18;72.44
72548;BME280;60570;50.848;6.776;2023-10-13T04:42:22;99944.09;;;18.18;71.98
72548;BME280;60570;50.848;6.776;2023-10-13T04:43:39;99940.47;;;18.17;72.37
72548;BME280;60570;50.848;6.776;2023-10-13T04:44:54;99934.47;;;18.15;72.88
72548;BME280;60570;50.848;6.776;2023-10-13T04:46:02;99931.66;;;18.15;72.50
72548;BME280;60570;50.848;6.776;2023-10-13T04:47:14;99938.91;;;18.16;72.19
72548;BME280;60570;50.848;6.776;2023-10-13T04:48:18;99926.03;;;18.15;72.52
72548;BME280;60570;50.848;6.776;2023-10-13T04:49:29;99924.03;;;18.16;71.95
72548;BME280;60570;50.848;6.776;2023-10-13T04:50:35;99927.66;;;18.16;72.03
72548;BME280;60570;50.848;6.776;2023-10-13T04:51:44;99921.63;;;18.18;72.12
72548;BME280;60570;50.848;6.776;2023-10-13T04:52:58;99924.03;;;18.16;72.01
72548;BME280;60570;50.848;6.776;2023-10-13T04:54:02;99926.84;;;18.16;72.10
72548;BME280;60570;50.848;6.776;2023-10-13T04:55:12;99924.84;;;18.16;72.52
72548;BME280;60570;50.848;6.776;2023-10-13T04:56:43;99920.41;;;18.15;71.92
72548;BME280;60570;50.848;6.776;2023-10-13T04:58:04;99923.22;;;18.15;72.34
72548;BME280;60570;50.848;6.776;2023-10-13T04:59:14;99926.84;;;18.16;72.11
72548;BME280;60570;50.848;6.776;2023-10-13T05:00:30;99916.81;;;18.15;71.74
72548;BME280;60570;50.848;6.776;2023-10-13T05:01:50;99917.19;;;18.17;71.83
72548;BME280;60570;50.848;6.776;2023-10-13T05:03:09;99912.78;;;18.16;72.08
72548;BME280;60570;50.848;6.776;2023-10-13T05:04:33;99921.63;;;18.14;72.32
72548;BME280;60570;50.848;6.776;2023-10-13T05:05:59;99916.81;;;18.15;71.96
72548;BME280;60570;50.848;6.776;2023-10-13T05:07:34;99916.81;;;18.15;72.97
72548;BME280;60570;50.848;6.776;2023-10-13T05:08:53;99918.41;;;18.16;72.33
72548;BME280;60570;50.848;6.776;2023-10-13T05:10:11;99913.19;;;18.14;72.79
72548;BME280;60570;50.848;6.776;2023-10-13T05:11:30;99914.00;;;18.15;72.08
72548;BME280;60570;50.848;6.776;2023-10-13T05:12:49;99912.78;;;18.16;72.88
72548;BME280;60570;50.848;6.776;2023-10-13T05:14:08;99901.13;;;18.14;72.89
72548;BME280;60570;50.848;6.776;2023-10-13T05:15:27;99908.38;;;18.15;72.16
72548;BME280;60570;50.848;6.776;2023-10-13T05:16:46;99903.53;;;18.15;72.13
72548;BME280;60570;50.848;6.776;2023-10-13T05:18:06;99904.34;;;18.16;72.27
72548;BME280;60570;50.848;6.776;2023-10-13T05:19:25;99902.75;;;18.15;72.63
72548;BME280;60570;50.848;6.776;2023-10-13T05:20:44;99909.97;;;18.16;72.59
72548;BME280;60570;50.848;6.776;2023-10-13T05:22:03;99910.78;;;18.16;73.59
72548;BME280;60570;50.848;6.776;2023-10-13T05:23:22;99909.16;;;18.15;72.35
72548;BME280;60570;50.848;6.776;2023-10-13T05:24:37;99914.00;;;18.15;73.64
72548;BME280;60570;50.848;6.776;2023-10-13T05:25:59;99910.38;;;18.14;72.68
72548;BME280;60570;50.848;6.776;2023-10-13T05:27:19;99912.38;;;18.14;73.10
72548;BME280;60570;50.848;6.776;2023-10-13T05:28:37;99911.19;;;18.15;72.87
72548;BME280;60570;50.848;6.776;2023-10-13T05:29:56;99912.38;;;18.14;73.37
72548;BME280;60570;50.848;6.776;2023-10-13T05:31:15;99907.97;;;18.13;72.92
72548;BME280;60570;50.848;6.776;2023-10-13T05:32:34;99911.56;;;18.13;73.79
72548;BME280;60570;50.848;6.776;2023-10-13T05:33:54;99919.22;;;18.13;72.92
72548;BME280;60570;50.848;6.776;2023-10-13T05:35:13;99914.78;;;18.15;73.34
72548;BME280;60570;50.848;6.776;2023-10-13T05:36:32;99911.56;;;18.13;73.19
72548;BME280;60570;50.848;6.776;2023-10-13T05:37:51;99911.56;;;18.13;73.89
72548;BME280;60570;50.848;6.776;2023-10-13T05:39:10;99916.78;;;18.11;73.70
72548;BME280;60570;50.848;6.776;2023-10-13T05:40:29;99912.78;;;18.12;72.99
72548;BME280;60570;50.848;6.776;2023-10-13T05:41:48;99920.41;;;18.12;73.39
72548;BME280;60570;50.848;6.776;2023-10-13T05:43:07;99912.78;;;18.12;73.61
72548;BME280;60570;50.848;6.776;2023-10-13T05:44:26;99912.38;;;18.14;72.92
72548;BME280;60570;50.848;6.776;2023-10-13T05:45:53;99909.56;;;18.14;72.52
72548;BME280;60570;50.848;6.776;2023-10-13T05:47:17;99911.56;;;18.13;73.14
72548;BME280;60570;50.848;6.776;2023-10-13T05:48:38;99909.16;;;18.12;73.34
72548;BME280;60570;50.848;6.776;2023-10-13T05:50:05;99905.94;;;18.13;72.88
72548;BME280;60570;50.848;6.776;2023-10-13T05:51:13;99910.78;;;18.13;73.10
72548;BME280;60570;50.848;6.776;2023-10-13T05:52:32;99911.56;;;18.13;73.20